Time;durP1;ratioP1;P1;durP2;ratioP2;P2;SDS_P1;SDS_P2;PMS_P1;PMS_P2;Temp;Humidity;BMP_temperature;BMP_pressure;BME280_temperature;BME280_humidity;BME280_pressure;Samples;Min_cycle;Max_cycle;Signal;HPM_P1;HPM_P2
2022/06/06 00:01:19;;;;;;;12.33;9.73;;;;;;;14.23;62.86;100615.19;1762420;81;27380;-67
2022/06/06 00:03:46;;;;;;;13.03;9.45;;;;;;;14.25;63.04;100613.76;1762429;81;25605;-68
2022/06/06 00:06:20;;;;;;;17.30;9.80;;;;;;;14.26;62.65;100613.98;1761939;80;25645;-68
2022/06/06 00:08:48;;;;;;;11.33;9.73;;;;;;;14.24;62.80;100606.70;1744032;80;25620;-68
2022/06/06 00:11:15;;;;;;;10.78;9.45;;;;;;;14.26;62.67;100603.66;1732246;82;25232;-67
2022/06/06 00:13:45;;;;;;;13.62;9.70;;;;;;;14.26;62.73;100605.02;1732137;82;27404;-67
2022/06/06 00:16:11;;;;;;;16.90;10.23;;;;;;;14.24;62.67;100602.63;1732081;82;25406;-68
2022/06/06 00:18:38;;;;;;;10.58;9.28;;;;;;;14.22;62.72;100604.06;1732188;82;25597;-68
2022/06/06 00:21:08;;;;;;;12.47;9.33;;;;;;;14.19;63.02;100600.09;1732162;82;25611;-68
2022/06/06 00:23:35;;;;;;;;;;;;;;;14.15;63.01;100599.94;1734196;82;25493;-67
2022/06/06 00:26:07;;;;;;;12.88;9.63;;;;;;;14.14;63.45;100595.61;1732188;82;28129;-68
2022/06/06 00:28:36;;;;;;;11.35;9.98;;;;;;;14.10;63.48;100596.04;1732106;82;25692;-67
2022/06/06 00:34:48;;;;;;;13.50;9.33;;;;;;;14.08;63.49;100586.05;1732447;82;25639;-67
2022/06/06 00:36:16;;;;;;;12.25;10.28;;;;;;;14.04;63.43;100582.37;1732173;82;25488;-72
2022/06/06 00:38:42;;;;;;;12.13;9.55;;;;;;;14.03;63.92;100579.43;1732183;82;27339;-69
2022/06/06 00:41:08;;;;;;;11.70;9.23;;;;;;;13.99;64.10;100579.25;1732145;82;25635;-69
2022/06/06 00:43:34;;;;;;;13.20;9.68;;;;;;;13.97;64.11;100572.56;1732176;82;25609;-69
2022/06/06 00:46:01;;;;;;;14.53;9.90;;;;;;;13.94;64.25;100561.75;1732116;82;25655;-69
2022/06/06 00:48:41;;;;;;;15.08;9.70;;;;;;;13.94;64.15;100562.33;1732174;82;25454;-69
2022/06/06 00:51:12;;;;;;;12.37;9.73;;;;;;;13.92;64.63;100561.86;1732181;82;28287;-68
2022/06/06 00:53:49;;;;;;;14.47;10.05;;;;;;;13.90;64.60;100566.83;1732069;82;25605;-68
2022/06/06 00:56:43;;;;;;;13.78;9.78;;;;;;;13.88;64.65;100553.55;1732068;82;25610;-67
2022/06/06 00:59:19;;;;;;;13.75;9.75;;;;;;;13.87;64.82;100556.59;1732164;82;25525;-68
2022/06/06 01:01:49;;;;;;;12.25;9.80;;;;;;;13.82;64.88;100562.45;1732177;82;25724;-68
2022/06/06 01:04:19;;;;;;;12.90;9.63;;;;;;;13.79;65.17;100561.74;1732121;82;27303;-67
2022/06/06 01:06:45;;;;;;;;;;;;;;;13.75;65.38;100563.49;1734652;82;25551;-68
2022/06/06 01:09:14;;;;;;;13.15;9.70;;;;;;;13.72;65.65;100566.85;1732165;82;25398;-68
2022/06/06 01:11:48;;;;;;;13.60;11.03;;;;;;;13.68;65.15;100565.91;1732312;82;25384;-67
2022/06/06 01:14:19;;;;;;;12.95;9.93;;;;;;;13.66;65.51;100554.57;1731229;82;25643;-68
2022/06/06 01:17:02;;;;;;;15.20;9.98;;;;;;;13.63;65.20;100556.00;1732145;82;28000;-68
2022/06/06 01:19:46;;;;;;;14.03;9.80;;;;;;;13.61;65.34;100556.89;1732064;82;25491;-67
2022/06/06 01:22:43;;;;;;;10.98;9.40;;;;;;;13.59;65.50;100549.63;1732243;82;25618;-68
2022/06/06 01:25:33;;;;;;;13.20;10.60;;;;;;;13.59;65.51;100550.20;1732104;82;25673;-69
2022/06/06 01:28:32;;;;;;;12.55;9.73;;;;;;;13.56;65.61;100549.48;1732398;82;25475;-67
2022/06/06 01:31:03;;;;;;;11.45;9.90;;;;;;;13.51;65.88;100546.92;1732315;82;32011;-67
2022/06/06 01:33:29;;;;;;;13.08;9.73;;;;;;;13.48;66.19;100547.00;1732223;82;25658;-67
2022/06/06 01:36:00;;;;;;;13.48;10.53;;;;;;;13.44;66.21;100542.77;1740017;82;25556;-67
2022/06/06 01:38:27;;;;;;;12.23;9.65;;;;;;;13.41;66.14;100543.41;1739969;82;25592;-67
2022/06/06 01:41:10;;;;;;;10.72;9.70;;;;;;;13.41;66.40;100546.13;1740014;82;25651;-67
2022/06/06 01:43:44;;;;;;;11.43;10.20;;;;;;;13.39;66.58;100546.22;1740018;82;27381;-68
2022/06/06 01:46:17;;;;;;;10.75;9.53;;;;;;;13.35;66.65;100541.17;1738645;82;25758;-68
2022/06/06 01:48:44;;;;;;;14.90;11.03;;;;;;;13.32;66.79;100538.56;1739953;82;25384;-69
2022/06/06 01:51:16;;;;;;;10.95;9.15;;;;;;;13.30;66.71;100540.77;1739931;82;25691;-67
2022/06/06 01:53:43;;;;;;;11.28;10.08;;;;;;;13.29;66.70;100535.66;1738739;82;25393;-66
2022/06/06 01:56:14;;;;;;;13.85;10.32;;;;;;;13.26;66.69;100542.52;1739973;82;27383;-68
2022/06/06 01:58:40;;;;;;;12.23;9.60;;;;;;;13.25;67.13;100540.94;1739890;82;25898;-67
2022/06/06 02:01:06;;;;;;;10.43;9.33;;;;;;;13.23;67.37;100539.89;1739965;82;25507;-69
2022/06/06 02:03:34;;;;;;;14.10;9.95;;;;;;;13.20;67.21;100535.09;1739937;82;25825;-69
2022/06/06 02:06:04;;;;;;;13.45;9.60;;;;;;;13.19;67.24;100539.49;1739958;82;25555;-66
2022/06/06 02:08:32;;;;;;;15.68;11.15;;;;;;;13.16;67.01;100540.12;1740051;82;27494;-67
2022/06/06 02:10:59;;;;;;;11.70;10.13;;;;;;;13.13;67.47;100532.08;1739884;82;25641;-68
2022/06/06 02:13:25;;;;;;;18.30;13.58;;;;;;;13.12;67.46;100534.54;1739892;82;25433;-68
2022/06/06 02:15:53;;;;;;;13.62;10.60;;;;;;;13.10;67.69;100535.99;1739938;82;26204;-68
2022/06/06 02:18:19;;;;;;;13.60;10.23;;;;;;;13.07;67.73;100538.77;1739905;82;25403;-68
2022/06/06 02:20:45;;;;;;;13.48;11.38;;;;;;;13.04;67.71;100528.01;1739957;82;27989;-68
2022/06/06 02:23:12;;;;;;;13.85;10.13;;;;;;;13.02;67.93;100521.28;1739976;82;25402;-68
2022/06/06 02:25:38;;;;;;;13.20;10.60;;;;;;;13.01;68.23;100516.98;1739959;82;25606;-68
2022/06/06 02:28:06;;;;;;;13.22;11.65;;;;;;;13.00;68.32;100514.81;1739881;82;26396;-68
2022/06/06 02:30:36;;;;;;;15.25;11.10;;;;;;;12.98;68.35;100514.34;1739962;82;25492;-68
2022/06/06 02:33:03;;;;;;;12.93;10.82;;;;;;;12.98;68.22;100508.12;1739911;82;27295;-68
2022/06/06 02:35:35;;;;;;;12.93;11.53;;;;;;;12.98;68.29;100502.69;1738460;81;25994;-68
2022/06/06 02:38:03;;;;;;;13.68;11.48;;;;;;;12.98;68.56;100503.48;1738101;82;25594;-68
2022/06/06 02:40:30;;;;;;;15.93;11.20;;;;;;;12.98;68.62;100497.26;1738044;82;25695;-68
2022/06/06 02:42:58;;;;;;;16.23;11.95;;;;;;;12.97;68.99;100499.16;1738131;82;25458;-68
2022/06/06 02:45:25;;;;;;;13.10;11.00;;;;;;;12.96;69.18;100493.50;1738075;82;27320;-68
2022/06/06 02:47:56;;;;;;;12.93;11.12;;;;;;;12.96;69.14;100492.14;1737958;82;25395;-68
2022/06/06 02:50:27;;;;;;;14.30;10.90;;;;;;;12.96;69.16;100489.43;1738100;82;25612;-68
2022/06/06 02:52:54;;;;;;;12.70;10.85;;;;;;;12.96;69.06;100495.42;1738090;82;25717;-68
2022/06/06 02:55:21;;;;;;;13.30;11.12;;;;;;;12.97;69.24;100492.94;1738091;82;25428;-68
2022/06/06 02:57:51;;;;;;;14.55;11.30;;;;;;;12.98;69.46;100499.41;1738063;82;27940;-68
2022/06/06 03:00:32;;;;;;;15.70;12.28;;;;;;;12.98;69.53;100502.69;1738029;82;25597;-68
2022/06/06 03:02:59;;;;;;;15.43;11.83;;;;;;;12.98;69.62;100499.97;1738132;82;25581;-68
2022/06/06 03:05:40;;;;;;;16.85;10.90;;;;;;;13.00;69.85;100493.66;1737965;82;26559;-68
2022/06/06 03:08:23;;;;;;;15.15;11.38;;;;;;;13.01;69.70;100505.56;1675915;85;25692;-68
2022/06/06 03:11:12;;;;;;;16.55;12.07;;;;;;;13.01;69.84;100502.84;1665551;85;27333;-66
2022/06/06 03:14:13;;;;;;;15.65;11.33;;;;;;;13.05;70.12;100507.86;1662949;86;25827;-69
2022/06/06 03:20:46;;;;;;;12.90;10.45;;;;;;;13.13;70.42;100524.46;1663308;86;25715;-69
2022/06/06 03:23:24;;;;;;;15.40;12.30;;;;;;;13.17;70.42;100527.59;1663202;86;25505;-67
2022/06/06 03:26:18;;;;;;;13.35;10.35;;;;;;;13.24;70.38;100532.54;1663100;86;27389;-66
2022/06/06 03:29:12;;;;;;;14.90;11.20;;;;;;;13.26;70.54;100529.75;1663073;86;25619;-67
2022/06/06 03:32:19;;;;;;;14.05;11.35;;;;;;;13.30;70.36;100529.91;1663131;86;25468;-67
2022/06/06 03:35:05;;;;;;;14.03;10.95;;;;;;;13.36;70.49;100536.78;1672854;84;25608;-68
2022/06/06 03:38:01;;;;;;;13.22;10.30;;;;;;;13.43;70.50;100536.30;1667266;86;25481;-67
2022/06/06 03:40:55;;;;;;;15.18;10.98;;;;;;;13.46;70.84;100542.45;1652902;86;27336;-68
2022/06/06 03:43:33;;;;;;;12.75;11.00;;;;;;;13.54;70.58;100544.36;1648316;85;25686;-66
2022/06/06 03:46:29;;;;;;;12.37;9.55;;;;;;;13.63;70.67;100545.70;1680630;85;25457;-67
2022/06/06 03:49:49;;;;;;;13.60;10.40;;;;;;;13.72;70.77;100547.03;1683253;85;25920;-68
2022/06/06 03:52:45;;;;;;;11.50;10.30;;;;;;;13.80;70.86;100547.58;1709513;83;33504;-68
2022/06/06 03:55:28;;;;;;;12.23;10.98;;;;;;;13.90;70.85;100549.95;1651011;86;27499;-67
2022/06/06 03:57:56;;;;;;;12.78;11.25;;;;;;;13.99;70.77;100551.27;1650831;86;25694;-67
2022/06/06 04:00:24;;;;;;;13.55;10.32;;;;;;;14.10;70.99;100557.17;1651020;86;25657;-67
2022/06/06 04:02:55;;;;;;;11.63;10.23;;;;;;;14.17;70.67;100556.88;1651090;86;25697;-67
2022/06/06 04:05:24;;;;;;;13.40;11.03;;;;;;;14.27;70.72;100563.08;1651105;86;25594;-67
2022/06/06 04:07:50;;;;;;;;;;;;;;;14.34;70.59;100556.01;1653518;86;27474;-67
2022/06/06 04:10:17;;;;;;;13.05;10.60;;;;;;;14.45;70.40;100565.95;1682199;85;25554;-68
2022/06/06 04:12:55;;;;;;;11.30;10.18;;;;;;;14.54;70.36;100568.62;1682246;85;25592;-68
2022/06/06 04:15:27;;;;;;;11.53;9.80;;;;;;;14.66;70.50;100562.50;1682304;85;25634;-68
2022/06/06 04:18:31;;;;;;;13.10;9.93;;;;;;;14.76;70.28;100563.47;1681113;85;25610;-68
2022/06/06 04:21:14;;;;;;;14.68;9.48;;;;;;;14.87;70.05;100564.69;1682243;85;29699;-67
2022/06/06 04:24:19;;;;;;;10.93;9.73;;;;;;;15.02;70.15;100573.41;1681395;85;25581;-66
2022/06/06 04:27:05;;;;;;;13.08;10.58;;;;;;;15.15;70.12;100576.98;1682226;85;25572;-66
2022/06/06 04:29:57;;;;;;;11.88;9.40;;;;;;;15.30;69.85;100575.80;1628076;88;26705;-64
2022/06/06 04:32:46;;;;;;;9.10;8.28;;;;;;;15.42;69.51;100575.64;1648765;86;25530;-66
2022/06/06 04:35:29;;;;;;;10.03;9.03;;;;;;;15.57;68.92;100581.83;1616907;87;27382;-65
2022/06/06 04:38:07;;;;;;;10.65;9.40;;;;;;;15.72;68.68;100586.43;1644633;87;25514;-67
2022/06/06 04:41:04;;;;;;;10.68;9.65;;;;;;;15.85;68.33;100588.06;1639520;85;25573;-67
2022/06/06 04:43:50;;;;;;;9.80;8.80;;;;;;;15.95;67.81;100580.02;1643843;85;26044;-65
2022/06/06 04:46:28;;;;;;;12.25;9.03;;;;;;;16.08;67.74;100575.40;1644676;87;25440;-65
2022/06/06 04:48:57;;;;;;;9.88;8.73;;;;;;;16.21;67.68;100578.38;1642120;87;27357;-66
2022/06/06 04:51:23;;;;;;;16.55;9.15;;;;;;;16.32;67.22;100573.25;1644645;87;25675;-66
2022/06/06 04:53:54;;;;;;;15.85;9.00;;;;;;;16.43;67.07;100573.82;1644582;87;25758;-67
2022/06/06 04:56:22;;;;;;;15.13;8.88;;;;;;;16.56;66.96;100575.17;1644669;87;25822;-66
2022/06/06 04:58:52;;;;;;;11.55;8.38;;;;;;;16.65;66.33;100581.30;1644641;87;25488;-67
2022/06/06 05:01:19;;;;;;;9.38;8.45;;;;;;;16.73;66.01;100574.92;1644661;87;27524;-65
2022/06/06 05:03:45;;;;;;;13.80;9.48;;;;;;;16.85;65.94;100582.91;1644535;87;25533;-66
2022/06/06 05:06:52;;;;;;;10.55;8.10;;;;;;;16.94;65.48;100576.19;1657751;85;25632;-66
2022/06/06 05:09:27;;;;;;;8.88;8.08;;;;;;;17.09;65.29;100575.22;1680451;85;25702;-66
2022/06/06 05:12:32;;;;;;;10.82;8.18;;;;;;;17.26;65.38;100582.34;1694379;83;25566;-65
2022/06/06 05:15:44;;;;;;;9.90;8.08;;;;;;;17.41;64.87;100588.44;1695308;84;29640;-66
2022/06/06 05:18:34;;;;;;;11.00;8.00;;;;;;;17.58;65.05;100586.55;1666753;86;25533;-66
2022/06/06 05:21:26;;;;;;;;;;;;;;;17.79;64.94;100588.48;1669313;86;25593;-66
2022/06/06 05:24:06;;;;;;;10.40;7.75;;;;;;;17.92;63.64;100587.88;1666824;86;25821;-66
2022/06/06 05:26:50;;;;;;;12.05;9.23;;;;;;;18.05;63.24;100585.28;1666694;84;25482;-66
2022/06/06 05:29:43;;;;;;;12.05;9.35;;;;;;;18.17;63.03;100592.63;1665797;84;27358;-67
2022/06/06 05:32:32;;;;;;;11.68;10.63;;;;;;;18.34;62.73;100594.77;1664979;86;25525;-66
2022/06/06 05:35:08;;;;;;;;;;;;;;;18.49;61.54;100589.87;1667164;86;25814;-67
2022/06/06 05:38:13;;;;;;;10.93;9.08;;;;;;;18.59;61.26;100587.95;1677643;85;26210;-66
2022/06/06 05:40:59;;;;;;;13.10;8.83;;;;;;;18.72;61.67;100590.58;1677815;85;25725;-65
2022/06/06 05:44:02;;;;;;;11.55;8.65;;;;;;;18.91;61.67;100587.89;1677828;85;27525;-67
2022/06/06 05:46:49;;;;;;;11.33;8.40;;;;;;;19.10;61.11;100590.44;1608877;89;25726;-66
2022/06/06 05:49:38;;;;;;;8.83;7.95;;;;;;;19.26;60.62;100588.44;1619706;87;25734;-66
2022/06/06 05:52:19;;;;;;;9.60;7.28;;;;;;;19.43;60.43;100589.14;1635243;87;26137;-65
2022/06/06 05:55:03;;;;;;;9.25;7.53;;;;;;;19.59;59.69;100594.75;1621175;87;26467;-66
2022/06/06 05:58:17;;;;;;;12.88;7.53;;;;;;;19.72;58.91;100595.41;1598475;88;27370;-66
2022/06/06 06:01:15;;;;;;;10.50;7.10;;;;;;;19.92;59.14;100604.42;1620887;88;26149;-66
2022/06/06 06:04:17;;;;;;;9.97;7.10;;;;;;;20.17;58.79;100590.91;1621192;88;25758;-66
2022/06/06 06:06:54;;;;;;;7.17;6.45;;;;;;;20.41;58.43;100598.74;1648407;85;25971;-67
2022/06/06 06:09:46;;;;;;;7.47;6.12;;;;;;;20.62;57.38;100594.20;1644522;85;25625;-66
2022/06/06 06:12:39;;;;;;;6.75;6.15;;;;;;;20.76;56.85;100588.71;1659709;85;27389;-66
2022/06/06 06:15:33;;;;;;;7.55;6.10;;;;;;;20.95;57.16;100585.82;1646272;85;27166;-66
2022/06/06 06:18:03;;;;;;;8.00;6.62;;;;;;;21.19;56.82;100578.27;1655063;85;25567;-66
2022/06/06 06:20:40;;;;;;;7.10;6.37;;;;;;;21.42;55.90;100580.91;1669951;85;26383;-67
2022/06/06 06:23:11;;;;;;;7.42;6.72;;;;;;;21.61;55.54;100582.70;1654565;85;26081;-67
2022/06/06 06:25:40;;;;;;;9.40;6.83;;;;;;;21.78;54.75;100575.20;1650550;85;27560;-66
2022/06/06 06:28:11;;;;;;;7.87;7.08;;;;;;;22.03;55.23;100578.77;1682377;85;25627;-66
2022/06/06 06:30:43;;;;;;;7.60;7.00;;;;;;;22.26;53.81;100574.44;1680402;85;25460;-66
2022/06/06 06:33:24;;;;;;;9.80;6.90;;;;;;;22.47;53.82;100566.15;1647152;85;25883;-66
2022/06/06 06:36:04;;;;;;;7.70;7.00;;;;;;;22.74;53.26;100573.59;1666988;84;25689;-67
2022/06/06 06:38:44;;;;;;;13.28;6.45;;;;;;;22.96;52.59;100559.33;1668172;84;27505;-66
2022/06/06 06:41:37;;;;;;;7.75;6.75;;;;;;;23.16;52.15;100557.09;1684420;84;25744;-67
2022/06/06 06:44:15;;;;;;;7.60;6.95;;;;;;;23.38;51.17;100547.48;1746440;81;25836;-67
2022/06/06 06:46:46;;;;;;;7.05;6.15;;;;;;;23.61;50.84;100548.52;1759479;81;26382;-67
2022/06/06 06:49:24;;;;;;;5.90;5.37;;;;;;;23.86;50.31;100551.34;1736083;82;25698;-67
2022/06/06 06:52:26;;;;;;;7.03;5.53;;;;;;;24.05;49.04;100544.64;1710612;83;28234;-68
2022/06/06 06:55:36;;;;;;;5.10;4.70;;;;;;;24.17;48.27;100541.47;1751581;81;25282;-68
2022/06/06 06:58:52;;;;;;;5.53;5.03;;;;;;;24.39;47.74;100541.45;1750098;81;25421;-67
2022/06/06 07:11:42;;;;;;;4.60;4.20;;;;;;;24.96;46.42;100545.47;1730928;82;26492;-66
2022/06/06 07:14:48;;;;;;;6.60;3.87;;;;;;;25.11;45.32;100553.09;1709398;83;25679;-66
2022/06/06 07:17:16;;;;;;;7.30;3.90;;;;;;;25.14;45.39;100553.67;1710257;82;25636;-67
2022/06/06 07:19:50;;;;;;;11.60;4.40;;;;;;;25.22;44.39;100554.45;1730935;82;25600;-67
2022/06/06 07:22:18;;;;;;;5.30;4.80;;;;;;;25.35;44.12;100552.83;1708419;84;27485;-70
2022/06/06 07:24:49;;;;;;;4.53;4.00;;;;;;;25.48;43.54;100560.05;1728050;82;25716;-67
2022/06/06 07:27:15;;;;;;;7.15;4.28;;;;;;;25.62;42.94;100560.56;1712500;82;26300;-66
2022/06/06 07:29:41;;;;;;;4.10;3.77;;;;;;;25.65;42.80;100562.52;1710540;83;26338;-66
2022/06/06 07:32:34;;;;;;;4.37;3.37;;;;;;;25.81;42.58;100560.64;1709428;83;25657;-66
2022/06/06 07:35:21;;;;;;;7.92;4.10;;;;;;;25.88;41.72;100550.89;1732095;82;27350;-65
2022/06/06 07:37:55;;;;;;;4.03;3.62;;;;;;;25.96;40.67;100555.02;1688179;83;25672;-66
2022/06/06 07:40:33;;;;;;;3.95;3.52;;;;;;;26.06;41.38;100556.30;1709493;83;25860;-66
2022/06/06 07:43:19;;;;;;;4.60;3.87;;;;;;;26.34;40.82;100561.99;1724253;82;25710;-66
2022/06/06 07:45:49;;;;;;;4.55;3.65;;;;;;;26.54;40.95;100560.20;1729425;81;25925;-66
2022/06/06 07:48:27;;;;;;;3.40;3.10;;;;;;;26.82;39.60;100553.59;1747811;81;26923;-67
2022/06/06 07:51:04;;;;;;;4.05;3.00;;;;;;;27.07;39.74;100551.09;1745438;81;25389;-66
2022/06/06 07:53:53;;;;;;;3.20;3.00;;;;;;;27.34;39.09;100537.27;1752445;81;25402;-66
2022/06/06 07:56:27;;;;;;;4.28;3.52;;;;;;;27.53;37.81;100536.42;1748362;81;25686;-67
2022/06/06 07:59:11;;;;;;;3.60;3.17;;;;;;;27.45;37.06;100531.59;1744624;81;25656;-67
2022/06/06 08:02:17;;;;;;;3.92;3.10;;;;;;;27.39;36.57;100531.25;1728032;82;28687;-66
2022/06/06 08:05:23;;;;;;;5.15;3.05;;;;;;;27.42;37.48;100528.25;1750268;81;25667;-66
2022/06/06 08:08:30;;;;;;;3.42;3.12;;;;;;;27.69;36.55;100527.45;1751001;81;25723;-65
2022/06/06 08:11:07;;;;;;;3.27;3.02;;;;;;;27.77;35.56;100534.48;1741942;82;26373;-65
2022/06/06 08:13:59;;;;;;;5.00;3.47;;;;;;;27.73;35.65;100528.17;1726787;82;25668;-65
2022/06/06 08:16:36;;;;;;;4.03;3.05;;;;;;;27.73;35.17;100523.39;1748363;81;27378;-65
2022/06/06 08:19:20;;;;;;;3.75;2.60;;;;;;;27.78;34.52;100529.09;1744339;81;25904;-65
2022/06/06 08:21:49;;;;;;;4.55;2.72;;;;;;;27.78;34.47;100511.64;1729319;82;26177;-66
2022/06/06 08:24:24;;;;;;;4.30;3.10;;;;;;;27.90;35.02;100515.97;1747639;81;25649;-67
2022/06/06 08:26:51;;;;;;;2.95;2.75;;;;;;;28.20;34.84;100519.09;1745804;81;26347;-66
2022/06/06 08:29:19;;;;;;;3.40;3.10;;;;;;;28.44;33.96;100523.39;1752446;81;27390;-65
2022/06/06 08:31:45;;;;;;;2.80;2.60;;;;;;;28.55;33.79;100506.52;1745088;81;26475;-66
2022/06/06 08:34:12;;;;;;;3.02;2.72;;;;;;;28.88;34.10;100522.74;1749016;81;25690;-66
2022/06/06 08:37:05;;;;;;;3.02;2.60;;;;;;;29.03;33.20;100510.70;1751945;81;26294;-66
2022/06/06 08:39:49;;;;;;;3.02;2.52;;;;;;;29.11;32.96;100509.15;1722807;82;25879;-65
2022/06/06 08:42:54;;;;;;;3.05;2.80;;;;;;;29.46;32.46;100519.31;1693681;84;27351;-67
2022/06/06 08:45:47;;;;;;;4.42;2.62;;;;;;;29.29;30.47;100509.56;1723708;83;25836;-66
2022/06/06 08:48:38;;;;;;;4.70;3.27;;;;;;;29.19;31.41;100498.06;1720347;83;25744;-65
2022/06/06 08:51:22;;;;;;;3.77;2.80;;;;;;;29.38;31.36;100504.16;1722136;83;25687;-66
2022/06/06 08:54:20;;;;;;;3.47;3.10;;;;;;;29.45;31.56;100493.47;1704188;83;25459;-66
2022/06/06 08:57:00;;;;;;;3.75;2.80;;;;;;;29.69;31.38;100494.07;1724820;83;27326;-66
2022/06/06 08:59:58;;;;;;;2.92;2.72;;;;;;;29.72;31.50;100495.98;1716879;83;25776;-67
2022/06/06 09:02:35;;;;;;;3.87;2.80;;;;;;;29.77;30.77;100504.47;1724956;83;25851;-66
2022/06/06 09:05:13;;;;;;;2.77;2.58;;;;;;;29.57;29.50;100501.74;1723437;83;26490;-65
2022/06/06 09:08:03;;;;;;;4.78;2.80;;;;;;;29.35;29.95;100502.86;1702850;83;25717;-66
2022/06/06 09:10:59;;;;;;;3.52;2.72;;;;;;;29.35;29.86;100502.86;1723692;83;27336;-65
2022/06/06 09:14:17;;;;;;;4.47;2.65;;;;;;;29.47;30.20;100493.03;1716970;83;25758;-64
2022/06/06 09:17:24;;;;;;;2.92;2.50;;;;;;;29.74;29.82;100501.13;1726899;83;25688;-64
2022/06/06 09:20:23;;;;;;;2.55;2.35;;;;;;;29.87;29.53;100488.70;1707294;84;25687;-65
2022/06/06 09:23:07;;;;;;;2.70;2.33;;;;;;;30.13;30.21;100491.77;1756900;81;25607;-65
2022/06/06 09:25:44;;;;;;;3.67;2.72;;;;;;;30.27;28.94;100499.59;1708999;82;28023;-66
2022/06/06 09:28:45;;;;;;;2.15;2.02;;;;;;;30.08;28.63;100483.94;1734535;82;25749;-65
2022/06/06 09:31:35;;;;;;;2.55;2.35;;;;;;;29.99;28.37;100484.58;1734408;82;25644;-66
2022/06/06 09:34:44;;;;;;;3.58;2.37;;;;;;;30.14;28.59;100493.35;1730698;82;26414;-66
2022/06/06 09:37:29;;;;;;;4.55;3.30;;;;;;;30.25;28.15;100484.69;1721978;82;25682;-65
2022/06/06 09:40:13;;;;;;;4.37;2.30;;;;;;;30.33;28.28;100483.27;1722171;83;27339;-65
2022/06/06 09:43:13;;;;;;;4.00;2.17;;;;;;;30.35;27.15;100480.84;1721927;83;25669;-65
2022/06/06 09:45:51;;;;;;;2.72;2.52;;;;;;;30.17;28.13;100470.16;1705235;83;25734;-65
2022/06/06 09:48:47;;;;;;;2.77;2.58;;;;;;;30.35;28.01;100468.88;1725657;83;26067;-66
2022/06/06 09:51:43;;;;;;;2.65;2.40;;;;;;;30.37;27.52;100460.10;1716511;83;25653;-66
2022/06/06 10:00:43;;;;;;;3.10;2.40;;;;;;;30.57;27.77;100462.11;1668483;85;25762;-66
2022/06/06 10:04:02;;;;;;;3.55;2.30;;;;;;;30.57;27.34;100458.55;1662413;85;25669;-66
2022/06/06 10:07:07;;;;;;;3.00;2.80;;;;;;;30.41;27.28;100481.70;1654810;86;25724;-66
2022/06/06 10:10:07;;;;;;;3.98;2.33;;;;;;;30.05;27.58;100454.77;1627871;86;27424;-65
2022/06/06 10:13:01;;;;;;;2.87;2.62;;;;;;;29.93;28.30;100458.47;1653171;86;26074;-66
2022/06/06 10:15:56;;;;;;;3.87;2.58;;;;;;;30.03;28.25;100459.38;1659461;86;25460;-65
2022/06/06 10:19:03;;;;;;;3.27;2.90;;;;;;;29.89;28.64;100454.97;1654056;86;26563;-66
2022/06/06 10:22:15;;;;;;;2.87;2.67;;;;;;;30.06;28.73;100452.16;1660184;86;26408;-65
2022/06/06 10:25:24;;;;;;;3.27;3.08;;;;;;;30.00;28.64;100457.46;1617234;87;27462;-66
2022/06/06 10:28:01;;;;;;;3.90;3.55;;;;;;;30.11;28.74;100444.03;1602340;88;27256;-66
2022/06/06 10:31:01;;;;;;;4.22;3.62;;;;;;;30.20;28.95;100435.64;1619658;87;25674;-65
2022/06/06 10:33:59;;;;;;;3.67;3.37;;;;;;;30.38;28.67;100429.56;1616343;88;25703;-66
2022/06/06 10:36:40;;;;;;;6.85;3.12;;;;;;;30.38;28.05;100426.77;1609678;88;26490;-66
2022/06/06 10:39:33;;;;;;;3.50;3.02;;;;;;;30.27;28.67;100418.69;1658885;85;27356;-65
2022/06/06 10:42:38;;;;;;;3.52;3.22;;;;;;;30.49;29.02;100423.84;1655347;85;25772;-65
2022/06/06 10:45:30;;;;;;;4.47;3.20;;;;;;;30.56;28.28;100429.05;1673620;85;25640;-65
2022/06/06 10:48:37;;;;;;;3.15;2.85;;;;;;;30.35;28.64;100419.47;1656398;85;25595;-66
2022/06/06 10:51:41;;;;;;;3.02;2.80;;;;;;;30.44;29.22;100416.64;1673501;85;25503;-65
2022/06/06 10:54:44;;;;;;;3.72;3.30;;;;;;;30.90;29.44;100407.48;1657645;85;29590;-66
2022/06/06 10:57:45;;;;;;;3.50;3.20;;;;;;;31.41;28.35;100394.09;1759509;81;25703;-66
2022/06/06 11:00:32;;;;;;;4.05;3.62;;;;;;;31.23;27.93;100401.06;1740942;82;25690;-66
2022/06/06 11:03:45;;;;;;;7.33;3.60;;;;;;;30.99;28.01;100395.06;1735180;82;25861;-66
2022/06/06 11:06:26;;;;;;;4.22;3.80;;;;;;;30.80;27.25;100406.60;1738883;80;25749;-65
2022/06/06 11:09:10;;;;;;;4.25;3.90;;;;;;;30.69;27.91;100405.52;1742226;82;27375;-67
2022/06/06 11:11:56;;;;;;;7.25;3.67;;;;;;;30.57;27.76;100397.92;1741546;82;25612;-67
2022/06/06 11:14:40;;;;;;;5.47;4.42;;;;;;;30.57;28.43;100391.56;1740184;82;25631;-68
2022/06/06 11:17:38;;;;;;;4.47;4.05;;;;;;;30.70;28.37;100388.95;1766686;81;26353;-66
2022/06/06 11:20:47;;;;;;;3.65;3.37;;;;;;;30.76;28.53;100382.19;1723514;82;25750;-65
2022/06/06 11:23:31;;;;;;;4.28;3.72;;;;;;;30.98;28.79;100375.96;1766808;81;27315;-65
2022/06/06 11:26:37;;;;;;;3.98;3.67;;;;;;;31.01;27.61;100370.26;1741167;82;25662;-68
2022/06/06 11:29:14;;;;;;;3.70;3.27;;;;;;;31.03;27.40;100367.02;1740789;82;25785;-68
2022/06/06 11:32:20;;;;;;;4.17;3.77;;;;;;;31.10;28.12;100369.57;1747612;81;27818;-68
2022/06/06 11:35:30;;;;;;;4.53;3.60;;;;;;;31.17;27.80;100367.94;1748806;81;25722;-70
2022/06/06 11:38:23;;;;;;;3.98;3.58;;;;;;;31.37;27.94;100355.09;1685712;84;27324;-68
2022/06/06 11:40:58;;;;;;;3.98;3.58;;;;;;;31.84;28.20;100357.67;1646324;87;26512;-69
2022/06/06 11:44:00;;;;;;;4.12;3.58;;;;;;;32.19;27.85;100356.23;1646622;85;25785;-69
2022/06/06 11:47:12;;;;;;;3.62;3.30;;;;;;;32.03;26.69;100357.98;1646661;87;25912;-68
2022/06/06 11:49:53;;;;;;;4.65;4.25;;;;;;;32.03;26.69;100357.98;1646539;87;25796;-70
2022/06/06 11:53:11;;;;;;;4.40;4.00;;;;;;;31.78;26.78;100336.52;1636669;87;28061;-69
2022/06/06 11:56:21;;;;;;;4.22;3.80;;;;;;;31.72;27.29;100341.15;1646505;87;25405;-70
2022/06/06 11:59:24;;;;;;;5.67;4.00;;;;;;;31.52;27.27;100335.86;1646420;87;25610;-70
2022/06/06 12:02:15;;;;;;;4.95;3.70;;;;;;;31.36;27.13;100336.76;1647850;85;25712;-70
2022/06/06 12:05:08;;;;;;;5.42;4.33;;;;;;;31.17;27.17;100336.44;1645002;86;26527;-70
2022/06/06 12:07:58;;;;;;;4.40;4.00;;;;;;;31.17;27.17;100336.44;1609368;88;28059;-69
2022/06/06 12:10:32;;;;;;;4.67;4.15;;;;;;;31.22;27.31;100334.47;1608267;89;25704;-68
2022/06/06 12:13:19;;;;;;;4.00;3.70;;;;;;;30.88;27.82;100342.30;1632421;87;25871;-68
2022/06/06 12:15:56;;;;;;;4.62;4.20;;;;;;;30.95;27.98;100342.72;1592263;89;25620;-69
2022/06/06 12:18:42;;;;;;;4.78;4.37;;;;;;;30.91;27.91;100327.45;1681546;83;26174;-69
2022/06/06 12:21:46;;;;;;;6.95;4.17;;;;;;;31.24;27.98;100324.39;1697836;83;28137;-68
2022/06/06 12:24:42;;;;;;;4.15;3.72;;;;;;;31.51;27.73;100316.13;1709572;83;25687;-69
2022/06/06 12:27:37;;;;;;;5.42;3.42;;;;;;;31.67;27.61;100312.98;1689117;84;25727;-69
2022/06/06 12:30:42;;;;;;;4.22;3.80;;;;;;;31.74;26.28;100328.09;1691604;84;25744;-69
2022/06/06 12:33:22;;;;;;;6.12;4.17;;;;;;;31.61;26.94;100320.55;1685299;85;25769;-69
2022/06/06 12:35:54;;;;;;;3.65;3.12;;;;;;;31.72;27.11;100326.37;1679021;85;27747;-69
2022/06/06 12:38:50;;;;;;;7.20;3.87;;;;;;;31.68;26.11;100322.94;1695748;84;26511;-69
2022/06/06 12:41:52;;;;;;;4.80;3.02;;;;;;;31.60;26.57;100321.00;1690314;84;25627;-69
2022/06/06 12:44:43;;;;;;;3.67;3.37;;;;;;;31.44;26.53;100315.72;1690840;84;25752;-69
2022/06/06 12:47:37;;;;;;;3.30;3.10;;;;;;;31.55;26.73;100323.78;1728476;82;25751;-68
2022/06/06 12:50:38;;;;;;;3.47;3.10;;;;;;;31.57;25.87;100314.95;1725183;82;29451;-68
2022/06/06 12:53:22;;;;;;;3.85;2.55;;;;;;;31.96;24.99;100323.30;1705826;83;25802;-68
2022/06/06 12:56:17;;;;;;;3.67;3.02;;;;;;;31.96;24.99;100323.30;1684859;84;25890;-69
2022/06/06 12:59:21;;;;;;;3.72;2.70;;;;;;;31.84;24.71;100311.53;1675484;85;25815;-68
2022/06/06 13:02:27;;;;;;;3.22;2.98;;;;;;;31.55;25.35;100317.39;1651509;84;25634;-70